createdAt,value
2024-03-26T00:05:34.621Z,27.20
2024-03-26T00:15:38.133Z,29.50
2024-03-26T00:25:41.339Z,29.20
2024-03-26T00:35:45.075Z,32.70
2024-03-26T00:45:50.942Z,28.00
2024-03-26T00:55:53.973Z,29.50
2024-03-26T01:05:57.942Z,30.90
2024-03-26T01:16:01.202Z,31.30
2024-03-26T01:26:04.880Z,29.30
2024-03-26T01:36:08.640Z,32.40
2024-03-26T01:46:12.543Z,30.10
2024-03-26T01:56:18.731Z,32.00
2024-03-26T02:06:22.286Z,28.10
2024-03-26T02:16:25.603Z,27.20
2024-03-26T02:26:28.999Z,24.00
2024-03-26T02:36:32.180Z,23.20
2024-03-26T02:46:35.763Z,24.70
2024-03-26T02:56:39.087Z,21.00
2024-03-26T03:06:42.192Z,18.40
2024-03-26T03:16:45.272Z,14.90
2024-03-26T03:26:49.383Z,14.90
2024-03-26T03:36:52.745Z,14.50
2024-03-26T03:46:56.223Z,13.60
2024-03-26T03:56:59.192Z,12.60
2024-03-26T04:07:02.582Z,11.60
2024-03-26T04:17:06.274Z,13.30
2024-03-26T04:27:11.836Z,13.00
2024-03-26T04:37:15.007Z,11.20
2024-03-26T04:47:18.115Z,10.80
2024-03-26T04:57:22.851Z,12.30
2024-03-26T05:07:26.049Z,10.20
2024-03-26T05:17:29.798Z,11.20
2024-03-26T05:27:32.877Z,13.70
2024-03-26T05:37:37.934Z,12.50
2024-03-26T05:47:41.104Z,12.60
2024-03-26T05:57:46.327Z,14.80
2024-03-26T06:07:49.408Z,11.80
2024-03-26T06:17:52.622Z,10.20
2024-03-26T06:27:55.954Z,9.30
2024-03-26T06:37:59.609Z,10.80
2024-03-26T06:48:02.540Z,11.40
2024-03-26T06:58:06.013Z,12.50
2024-03-26T07:08:09.236Z,10.60
2024-03-26T07:18:12.559Z,10.60
2024-03-26T07:28:16.309Z,10.00
2024-03-26T07:38:19.516Z,9.80
2024-03-26T07:48:23.073Z,10.60
2024-03-26T07:58:26.337Z,9.00
2024-03-26T08:08:29.370Z,9.30
2024-03-26T08:18:32.482Z,9.20
2024-03-26T08:28:35.727Z,10.70
2024-03-26T08:38:41.444Z,10.40
2024-03-26T08:48:45.597Z,10.80
2024-03-26T08:58:52.955Z,10.50
2024-03-26T09:08:56.112Z,9.20
2024-03-26T09:19:01.600Z,9.30
2024-03-26T09:29:06.699Z,8.80
2024-03-26T09:39:10.243Z,8.80
2024-03-26T09:49:20.263Z,9.90
2024-03-26T09:59:24.740Z,9.10
2024-03-26T10:09:28.784Z,9.10
2024-03-26T10:19:31.954Z,11.50
2024-03-26T10:29:37.789Z,11.90
2024-03-26T10:39:45.471Z,10.00
2024-03-26T10:59:52.333Z,8.60
2024-03-26T11:10:05.316Z,8.20
2024-03-26T11:20:16.908Z,8.70
2024-03-26T11:30:20.361Z,7.80
2024-03-26T11:40:23.818Z,8.90
2024-03-26T11:50:27.204Z,9.50
2024-03-26T12:00:30.511Z,7.80
2024-03-26T12:10:33.830Z,8.60
2024-03-26T12:20:37.703Z,5.80
2024-03-26T12:30:40.842Z,5.10
2024-03-26T12:40:44.194Z,4.90
2024-03-26T12:50:47.524Z,4.90
2024-03-26T13:00:50.620Z,4.00
2024-03-26T13:10:53.984Z,4.90
2024-03-26T13:20:57.364Z,4.80
2024-03-26T13:31:01.439Z,4.80
2024-03-26T13:41:05.223Z,4.00
2024-03-26T13:51:09.525Z,4.40
2024-03-26T14:01:12.857Z,3.90
2024-03-26T14:11:16.229Z,3.20
2024-03-26T14:21:19.496Z,3.10
2024-03-26T14:31:23.955Z,2.90
2024-03-26T14:41:27.111Z,2.10
2024-03-26T14:51:30.327Z,2.20
2024-03-26T15:01:33.604Z,2.60
2024-03-26T15:11:37.129Z,2.30
2024-03-26T15:21:40.426Z,2.30
2024-03-26T15:32:01.805Z,2.60
2024-03-26T15:42:06.340Z,2.40
2024-03-26T15:52:09.424Z,2.20
2024-03-26T16:02:17.531Z,1.80
2024-03-26T16:12:22.610Z,2.30
2024-03-26T16:22:25.959Z,2.40
2024-03-26T16:32:30.636Z,2.00
2024-03-26T16:42:33.900Z,1.60
2024-03-26T16:52:39.502Z,2.40
2024-03-26T17:02:42.956Z,3.10
2024-03-26T17:12:46.165Z,2.90
2024-03-26T17:22:51.466Z,2.70
2024-03-26T17:32:56.305Z,2.90
2024-03-26T17:42:59.619Z,3.30
2024-03-26T17:53:03.230Z,4.90
2024-03-26T18:03:07.906Z,4.20
2024-03-26T18:13:12.121Z,5.50
2024-03-26T18:23:15.587Z,3.80
2024-03-26T18:33:18.691Z,4.00
2024-03-26T18:43:22.851Z,3.40
2024-03-26T18:53:26.441Z,3.60
2024-03-26T19:03:34.622Z,4.10
2024-03-26T19:13:39.994Z,4.60
2024-03-26T19:23:43.174Z,4.90
2024-03-26T19:33:48.326Z,4.80
2024-03-26T19:43:51.966Z,6.00
2024-03-26T19:53:57.241Z,5.30
2024-03-26T20:04:00.434Z,4.30
2024-03-26T20:14:05.118Z,5.10
2024-03-26T20:24:09.393Z,4.30
2024-03-26T20:34:13.248Z,4.50
2024-03-26T20:44:18.408Z,4.90
2024-03-26T20:54:21.752Z,4.70
2024-03-26T21:04:25.191Z,4.90
2024-03-26T21:14:28.767Z,4.30
2024-03-26T21:24:32.306Z,4.20
2024-03-26T21:34:37.652Z,4.70
2024-03-26T21:44:41.007Z,4.30
2024-03-26T21:54:47.208Z,5.50
2024-03-26T22:04:51.158Z,4.90
2024-03-26T22:14:54.813Z,4.50
2024-03-26T22:24:58.410Z,5.20
2024-03-26T22:35:01.972Z,5.40
2024-03-26T22:45:07.543Z,5.90
2024-03-26T22:55:11.154Z,5.50
2024-03-26T23:05:14.770Z,5.50
2024-03-26T23:15:18.459Z,4.80
2024-03-26T23:25:22.033Z,4.70
2024-03-26T23:35:25.515Z,5.30
2024-03-26T23:45:28.969Z,5.00
2024-03-26T23:55:32.541Z,4.20
